createdAt,value
2019-05-12T00:02:31.820Z,102309.48
2019-05-12T00:05:14.138Z,102310.17
2019-05-12T00:07:58.929Z,102314.48
2019-05-12T00:10:41.196Z,102312.16
2019-05-12T00:13:15.764Z,102321.08
2019-05-12T00:15:57.788Z,102319.74
2019-05-12T00:18:32.061Z,102320.42
2019-05-12T00:21:19.354Z,102319.91
2019-05-12T00:24:11.605Z,102321.36
2019-05-12T00:26:58.061Z,102330.86
2019-05-12T00:29:48.583Z,102334.36
2019-05-12T00:32:22.298Z,102339.50
2019-05-12T00:34:55.879Z,102334.34
2019-05-12T00:37:29.088Z,102333.98
2019-05-12T00:40:12.487Z,102335.02
2019-05-12T00:42:57.732Z,102345.88
2019-05-12T00:45:30.516Z,102348.50
2019-05-12T00:48:19.977Z,102346.69
2019-05-12T00:50:53.883Z,102352.47
2019-05-12T00:53:39.316Z,102357.27
2019-05-12T00:56:03.231Z,102363.93
2019-05-12T00:58:45.993Z,102363.58
2019-05-12T01:01:29.047Z,102374.23
2019-05-12T01:04:12.397Z,102378.56
2019-05-12T01:06:45.713Z,102381.09
2019-05-12T01:09:19.866Z,102390.08
2019-05-12T01:11:53.037Z,102393.05
2019-05-12T01:14:39.139Z,102402.84
2019-05-12T01:17:21.801Z,102411.42
2019-05-12T01:20:04.364Z,102412.89
2019-05-12T01:22:50.344Z,102411.66
2019-05-12T01:25:22.719Z,102422.27
2019-05-12T01:28:05.023Z,102430.45
2019-05-12T01:30:39.329Z,102433.91
2019-05-12T01:33:13.106Z,102432.73
2019-05-12T01:35:48.261Z,102438.58
2019-05-12T01:38:22.387Z,102448.19
2019-05-12T01:40:58.355Z,102446.86
2019-05-12T01:43:40.594Z,102444.89
2019-05-12T01:46:14.420Z,102452.86
2019-05-12T01:48:49.160Z,102457.69
2019-05-12T01:51:22.707Z,102459.04
2019-05-12T01:54:10.197Z,102463.73
2019-05-12T01:56:31.204Z,102473.38
2019-05-12T01:59:05.212Z,102468.64
2019-05-12T02:01:39.103Z,102467.81
2019-05-12T02:04:21.865Z,102473.63
2019-05-12T02:06:57.775Z,102471.16
2019-05-12T02:09:33.352Z,102477.19
2019-05-12T02:12:08.225Z,102478.91
2019-05-12T02:14:42.637Z,102481.11
2019-05-12T02:17:17.994Z,102482.56
2019-05-12T02:20:00.811Z,102492.70
2019-05-12T02:22:43.097Z,102493.80
2019-05-12T02:25:18.436Z,102494.73
2019-05-12T02:27:52.362Z,102500.25
2019-05-12T02:30:35.628Z,102499.31
2019-05-12T02:33:17.526Z,102502.91
2019-05-12T02:35:51.037Z,102505.11
2019-05-12T02:38:25.246Z,102504.73
2019-05-12T02:41:07.618Z,102504.08
2019-05-12T02:43:41.528Z,102513.00
2019-05-12T02:46:25.510Z,102511.31
2019-05-12T02:48:59.624Z,102519.97
2019-05-12T02:51:44.708Z,102519.97
2019-05-12T02:54:47.088Z,102522.13
2019-05-12T02:57:14.324Z,102525.91
2019-05-12T03:00:05.143Z,102527.86
2019-05-12T03:02:38.510Z,102534.45
2019-05-12T03:05:20.944Z,102531.84
2019-05-12T03:07:56.359Z,102531.95
2019-05-12T03:10:38.918Z,102539.33
2019-05-12T03:13:14.684Z,102543.57
2019-05-12T03:15:46.883Z,102542.44
2019-05-12T03:18:20.769Z,102543.57
2019-05-12T03:20:54.821Z,102548.48
2019-05-12T03:23:28.710Z,102551.30
2019-05-12T03:26:15.105Z,102550.31
2019-05-12T03:28:56.735Z,102555.28
2019-05-12T03:31:32.076Z,102561.52
2019-05-12T03:34:09.323Z,102565.65
2019-05-12T03:36:43.319Z,102566.42
2019-05-12T03:39:16.091Z,102571.04
2019-05-12T03:41:50.065Z,102568.94
2019-05-12T03:44:25.167Z,102570.27
2019-05-12T03:46:58.906Z,102570.27
2019-05-12T03:49:34.766Z,102572.02
2019-05-12T03:52:08.111Z,102583.22
2019-05-12T03:54:51.077Z,102579.31
2019-05-12T03:57:34.502Z,102594.30
2019-05-12T04:00:08.463Z,102593.88
2019-05-12T04:02:45.346Z,102605.08
2019-05-12T04:05:26.197Z,102599.53
2019-05-12T04:07:59.740Z,102615.80
2019-05-12T04:10:35.326Z,102611.88
2019-05-12T04:13:08.376Z,102616.97
2019-05-12T04:15:41.547Z,102625.92
2019-05-12T04:18:24.844Z,102622.64
2019-05-12T04:20:58.511Z,102620.20
2019-05-12T04:23:34.827Z,102626.34
2019-05-12T04:26:12.130Z,102627.77
2019-05-12T04:28:45.640Z,102634.19
2019-05-12T04:31:17.955Z,102630.83
2019-05-12T04:33:54.480Z,102636.27
2019-05-12T04:36:26.359Z,102640.41
2019-05-12T04:39:00.516Z,102641.39
2019-05-12T04:41:35.376Z,102642.42
2019-05-12T04:44:08.779Z,102649.20
2019-05-12T04:46:44.957Z,102649.30
2019-05-12T04:49:26.087Z,102645.77
2019-05-12T04:52:08.527Z,102649.95
2019-05-12T04:54:44.564Z,102653.23
2019-05-12T04:57:21.233Z,102659.22
2019-05-12T04:59:54.412Z,102658.71
2019-05-12T05:02:39.032Z,102659.71
2019-05-12T05:05:14.564Z,102668.31
2019-05-12T05:08:04.363Z,102670.36
2019-05-12T05:10:47.341Z,102680.52
2019-05-12T05:13:21.275Z,102671.19
2019-05-12T05:16:05.398Z,102683.35
2019-05-12T05:18:54.297Z,102686.52
2019-05-12T05:21:37.439Z,102692.00
2019-05-12T05:24:19.832Z,102697.91
2019-05-12T05:26:54.055Z,102697.28
2019-05-12T05:29:27.780Z,102703.31
2019-05-12T05:32:00.977Z,102707.95
2019-05-12T05:34:36.116Z,102708.52
2019-05-12T05:37:18.773Z,102716.31
2019-05-12T05:40:07.409Z,102722.77
2019-05-12T05:42:43.928Z,102720.19
2019-05-12T05:45:22.147Z,102721.41
2019-05-12T05:47:54.268Z,102716.96
2019-05-12T05:50:29.451Z,102721.02
2019-05-12T05:53:03.836Z,102716.73
2019-05-12T05:55:37.700Z,102727.31
2019-05-12T05:58:11.657Z,102735.19
2019-05-12T06:00:45.475Z,102730.89
2019-05-12T06:03:23.061Z,102728.58
2019-05-12T06:05:54.347Z,102733.30
2019-05-12T06:08:28.248Z,102740.34
2019-05-12T06:11:26.590Z,102735.67
2019-05-12T06:13:54.036Z,102738.05
2019-05-12T06:16:27.549Z,102741.06
2019-05-12T06:19:00.774Z,102743.25
2019-05-12T06:21:38.192Z,102745.92
2019-05-12T06:24:15.548Z,102753.80
2019-05-12T06:26:56.804Z,102750.44
2019-05-12T06:29:22.717Z,102757.80
2019-05-12T06:32:10.624Z,102760.45
2019-05-12T06:34:43.535Z,102766.83
2019-05-12T06:37:25.623Z,102771.14
2019-05-12T06:40:00.606Z,102778.53
2019-05-12T06:42:34.743Z,102780.17
2019-05-12T06:45:08.330Z,102787.55
2019-05-12T06:47:45.407Z,102796.26
2019-05-12T06:50:17.156Z,102791.91
2019-05-12T06:52:50.298Z,102792.06
2019-05-12T06:55:23.871Z,102792.36
2019-05-12T06:57:58.207Z,102793.84
2019-05-12T07:00:40.479Z,102804.32
2019-05-12T07:03:14.381Z,102815.89
2019-05-12T07:05:49.308Z,102820.92
2019-05-12T07:08:29.988Z,102824.44
2019-05-12T07:11:01.930Z,102827.63
2019-05-12T07:13:34.283Z,102828.76
2019-05-12T07:16:19.311Z,102830.88
2019-05-12T07:18:50.803Z,102833.14
2019-05-12T07:21:27.335Z,102825.88
2019-05-12T07:24:06.610Z,102834.80
2019-05-12T07:26:35.979Z,102833.16
2019-05-12T07:29:09.422Z,102839.00
2019-05-12T07:31:44.210Z,102836.19
2019-05-12T07:34:18.137Z,102841.60
2019-05-12T07:36:54.067Z,102832.27
2019-05-12T07:39:47.808Z,102840.56
2019-05-12T07:42:15.272Z,102850.94
2019-05-12T07:45:03.797Z,102844.09
2019-05-12T07:47:48.982Z,102844.48
2019-05-12T07:50:34.223Z,102849.09
2019-05-12T07:53:16.255Z,102856.11
2019-05-12T07:55:58.566Z,102857.27
2019-05-12T07:58:33.315Z,102860.73
2019-05-12T08:01:08.037Z,102865.55
2019-05-12T08:03:43.538Z,102855.25
2019-05-12T08:06:25.526Z,102862.02
2019-05-12T08:08:59.203Z,102862.05
2019-05-12T08:11:43.412Z,102864.73
2019-05-12T08:14:25.839Z,102866.50
2019-05-12T08:16:54.310Z,102868.13
2019-05-12T08:19:28.690Z,102874.95
2019-05-12T08:22:04.314Z,102868.08
2019-05-12T08:24:43.222Z,102872.49
2019-05-12T08:27:14.289Z,102877.23
2019-05-12T08:29:54.403Z,102880.71
2019-05-12T08:32:27.180Z,102877.83
2019-05-12T08:35:14.103Z,102877.39
2019-05-12T08:37:56.889Z,102877.53
2019-05-12T08:40:46.391Z,102879.68
2019-05-12T08:43:18.997Z,102887.83
2019-05-12T08:45:53.584Z,102883.17
2019-05-12T08:48:27.519Z,102889.45
2019-05-12T08:51:05.363Z,102883.95
2019-05-12T08:53:38.784Z,102886.14
2019-05-12T08:56:23.992Z,102894.63
2019-05-12T08:58:56.944Z,102897.20
2019-05-12T09:01:39.154Z,102890.67
2019-05-12T09:04:18.093Z,102901.91
2019-05-12T09:06:59.888Z,102888.42
2019-05-12T09:09:33.772Z,102902.77
2019-05-12T09:12:16.806Z,102900.30
2019-05-12T09:14:59.127Z,102911.47
2019-05-12T09:17:34.703Z,102924.99
2019-05-12T09:20:17.055Z,102931.17
2019-05-12T09:22:52.775Z,102933.16
2019-05-12T09:25:39.334Z,102930.08
2019-05-12T09:28:28.046Z,102934.05
2019-05-12T09:31:03.707Z,102928.65
2019-05-12T09:33:46.245Z,102932.23
2019-05-12T09:36:29.488Z,102928.05
2019-05-12T09:39:05.705Z,102935.29
2019-05-12T09:41:42.344Z,102944.72
2019-05-12T09:44:13.443Z,102945.94
2019-05-12T09:46:47.156Z,102946.30
2019-05-12T09:49:22.800Z,102943.19
2019-05-12T09:51:56.495Z,102949.36
2019-05-12T09:54:35.250Z,102943.17
2019-05-12T09:57:04.833Z,102933.86
2019-05-12T09:59:37.985Z,102930.27
2019-05-12T10:02:21.000Z,102928.56
2019-05-12T10:05:00.558Z,102940.91
2019-05-12T10:07:31.240Z,102952.48
2019-05-12T10:10:14.227Z,102958.31
2019-05-12T10:12:56.434Z,102959.88
2019-05-12T10:15:30.354Z,102959.97
2019-05-12T10:18:06.353Z,102954.34
2019-05-12T10:20:48.127Z,102961.81
2019-05-12T10:23:25.154Z,102942.16
2019-05-12T10:25:55.759Z,102957.23
2019-05-12T10:28:43.712Z,102966.63
2019-05-12T10:31:18.650Z,102961.23
2019-05-12T10:34:24.019Z,102970.43
2019-05-12T10:37:09.998Z,102971.02
2019-05-12T10:39:54.136Z,102967.08
2019-05-12T10:42:27.706Z,102965.27
2019-05-12T10:45:03.941Z,102963.38
2019-05-12T10:47:36.955Z,102969.61
2019-05-12T10:50:19.534Z,102977.75
2019-05-12T10:52:53.724Z,102984.25
2019-05-12T10:55:36.672Z,102978.31
2019-05-12T10:58:10.251Z,102971.94
2019-05-12T11:00:44.487Z,102976.97
2019-05-12T11:03:18.284Z,102984.13
2019-05-12T11:05:54.632Z,102996.80
2019-05-12T11:08:26.716Z,102995.70
2019-05-12T11:11:01.327Z,102984.45
2019-05-12T11:13:46.164Z,102977.91
2019-05-12T11:16:22.716Z,102982.97
2019-05-12T11:18:54.193Z,102996.23
2019-05-12T11:21:39.359Z,103002.85
2019-05-12T11:24:13.867Z,103003.27
2019-05-12T11:26:47.859Z,103002.95
2019-05-12T11:29:23.366Z,102992.55
2019-05-12T11:31:57.539Z,102988.75
2019-05-12T11:34:39.751Z,102993.38
2019-05-12T11:37:13.873Z,102994.02
2019-05-12T11:39:47.696Z,103002.28
2019-05-12T11:42:21.240Z,103010.55
2019-05-12T11:44:55.163Z,103008.00
2019-05-12T11:47:29.463Z,103009.23
2019-05-12T11:50:13.283Z,103009.31
2019-05-12T11:52:51.023Z,103009.50
2019-05-12T11:55:29.400Z,103008.28
2019-05-12T11:58:00.371Z,103007.17
2019-05-12T12:00:37.839Z,103017.16
2019-05-12T12:03:24.416Z,103015.09
2019-05-12T12:06:06.502Z,103015.71
2019-05-12T12:08:40.373Z,103004.41
2019-05-12T12:11:18.851Z,103024.58
2019-05-12T12:13:53.398Z,103034.59
2019-05-12T12:16:34.923Z,103039.71
2019-05-12T12:19:08.319Z,103032.88
2019-05-12T12:21:48.088Z,103036.23
2019-05-12T12:24:31.165Z,103042.58
2019-05-12T12:27:10.797Z,103049.66
2019-05-12T12:29:44.156Z,103046.30
2019-05-12T12:32:20.321Z,103050.59
2019-05-12T12:34:54.398Z,103039.53
2019-05-12T12:37:28.031Z,103030.00
2019-05-12T12:40:04.257Z,103048.13
2019-05-12T12:42:44.175Z,103042.28
2019-05-12T12:45:36.857Z,103052.83
2019-05-12T12:48:08.656Z,103051.13
2019-05-12T12:50:44.376Z,103061.22
2019-05-12T12:53:27.607Z,103058.44
2019-05-12T12:56:01.431Z,103062.52
2019-05-12T12:58:34.978Z,103067.11
2019-05-12T13:01:14.174Z,103072.77
2019-05-12T13:03:44.694Z,103073.91
2019-05-12T13:06:34.575Z,103084.00
2019-05-12T13:09:21.941Z,103083.40
2019-05-12T13:11:55.541Z,103078.91
2019-05-12T13:14:38.464Z,103076.28
2019-05-12T13:17:20.618Z,103086.44
2019-05-12T13:19:58.543Z,103095.44
2019-05-12T13:22:29.976Z,103087.30
2019-05-12T13:25:18.213Z,103093.98
2019-05-12T13:27:53.403Z,103084.13
2019-05-12T13:30:26.646Z,103097.22
2019-05-12T13:33:00.684Z,103092.88
2019-05-12T13:35:50.322Z,103097.27
2019-05-12T13:38:23.619Z,103095.39
2019-05-12T13:40:57.004Z,103103.42
2019-05-12T13:43:30.243Z,103101.02
2019-05-12T13:46:03.772Z,103101.44
2019-05-12T13:48:38.407Z,103111.97
2019-05-12T13:51:20.939Z,103119.08
2019-05-12T13:54:03.919Z,103128.97
2019-05-12T13:56:38.361Z,103121.69
2019-05-12T13:59:12.070Z,103126.33
2019-05-12T14:01:47.649Z,103139.00
2019-05-12T14:04:30.284Z,103132.55
2019-05-12T14:07:09.241Z,103129.70
2019-05-12T14:09:39.649Z,103129.61
2019-05-12T14:12:22.343Z,103145.72
2019-05-12T14:15:05.394Z,103142.63
2019-05-12T14:17:43.496Z,103150.96
2019-05-12T14:20:25.848Z,103150.59
2019-05-12T14:22:59.760Z,103155.80
2019-05-12T14:25:46.870Z,103157.80
2019-05-12T14:28:33.657Z,103151.44
2019-05-12T14:31:05.306Z,103153.36
2019-05-12T14:33:39.473Z,103145.80
2019-05-12T14:36:21.607Z,103152.53
2019-05-12T14:38:49.521Z,103156.14
2019-05-12T14:41:26.803Z,103165.91
2019-05-12T14:44:03.451Z,103152.24
2019-05-12T14:46:40.173Z,103152.24
2019-05-12T14:49:11.453Z,103161.63
2019-05-12T14:51:53.739Z,103171.87
2019-05-12T14:54:40.543Z,103177.75
2019-05-12T14:57:29.449Z,103184.32
2019-05-12T15:00:11.285Z,103184.52
2019-05-12T15:03:05.448Z,103183.91
2019-05-12T15:05:36.321Z,103184.64
2019-05-12T15:08:09.818Z,103185.06
2019-05-12T15:10:43.784Z,103185.58
2019-05-12T15:13:17.279Z,103195.25
2019-05-12T15:15:58.136Z,103190.04
2019-05-12T15:18:26.395Z,103192.32
2019-05-12T15:20:59.925Z,103195.41
2019-05-12T15:23:37.207Z,103198.00
2019-05-12T15:26:15.841Z,103189.44
2019-05-12T15:28:45.734Z,103198.88
2019-05-12T15:31:27.977Z,103201.62
2019-05-12T15:34:03.611Z,103208.94
2019-05-12T15:36:52.135Z,103202.46
2019-05-12T15:39:21.817Z,103214.23
2019-05-12T15:42:04.309Z,103219.67
2019-05-12T15:44:38.555Z,103215.69
2019-05-12T15:47:26.657Z,103219.31
2019-05-12T15:50:05.371Z,103220.27
2019-05-12T15:52:48.394Z,103217.11
2019-05-12T15:55:36.788Z,103229.41
2019-05-12T15:58:10.056Z,103236.19
2019-05-12T16:00:50.182Z,103238.03
2019-05-12T16:03:26.339Z,103244.92
2019-05-12T16:06:01.349Z,103243.83
2019-05-12T16:08:34.420Z,103241.95
2019-05-12T16:11:16.834Z,103250.40
2019-05-12T16:13:54.695Z,103251.16
2019-05-12T16:16:27.441Z,103251.81
2019-05-12T16:19:08.414Z,103258.77
2019-05-12T16:21:54.997Z,103268.56
2019-05-12T16:24:29.609Z,103259.56
2019-05-12T16:27:03.630Z,103268.44
2019-05-12T16:29:58.793Z,103270.16
2019-05-12T16:32:39.221Z,103261.06
2019-05-12T16:35:07.980Z,103260.87
2019-05-12T16:37:53.328Z,103254.88
2019-05-12T16:40:27.012Z,103261.72
2019-05-12T16:43:00.904Z,103274.71
2019-05-12T16:45:34.845Z,103277.58
2019-05-12T16:48:26.641Z,103279.32
2019-05-12T16:50:57.207Z,103273.51
2019-05-12T16:53:30.671Z,103284.12
2019-05-12T16:56:05.829Z,103280.42
2019-05-12T16:58:44.504Z,103281.16
2019-05-12T17:01:24.250Z,103291.37
2019-05-12T17:03:55.105Z,103281.56
2019-05-12T17:06:34.974Z,103277.97
2019-05-12T17:09:06.629Z,103281.41
2019-05-12T17:11:47.161Z,103290.68
2019-05-12T17:14:14.833Z,103286.91
2019-05-12T17:16:57.044Z,103286.17
2019-05-12T17:19:30.983Z,103292.02
2019-05-12T17:22:04.241Z,103296.92
2019-05-12T17:24:38.111Z,103301.94
2019-05-12T17:27:15.874Z,103299.53
2019-05-12T17:29:48.156Z,103300.11
2019-05-12T17:32:23.771Z,103310.73
2019-05-12T17:34:57.729Z,103313.38
2019-05-12T17:37:41.510Z,103308.84
2019-05-12T17:40:20.012Z,103315.33
2019-05-12T17:43:06.710Z,103325.89
2019-05-12T17:45:34.736Z,103327.65
2019-05-12T17:48:08.202Z,103323.52
2019-05-12T17:50:46.686Z,103331.12
2019-05-12T17:53:17.934Z,103338.87
2019-05-12T17:55:53.989Z,103343.98
2019-05-12T17:58:29.707Z,103342.36
2019-05-12T18:01:03.687Z,103346.50
2019-05-12T18:03:39.371Z,103355.88
2019-05-12T18:06:14.124Z,103360.45
2019-05-12T18:08:48.352Z,103359.83
2019-05-12T18:11:23.920Z,103363.06
2019-05-12T18:14:02.348Z,103372.39
2019-05-12T18:16:33.901Z,103371.44
2019-05-12T18:19:09.028Z,103375.19
2019-05-12T18:21:44.919Z,103388.02
2019-05-12T18:24:17.957Z,103382.66
2019-05-12T18:26:56.674Z,103386.05
2019-05-12T18:29:44.074Z,103380.48
2019-05-12T18:32:17.826Z,103392.45
2019-05-12T18:35:04.257Z,103393.80
2019-05-12T18:37:54.015Z,103395.13
2019-05-12T18:40:42.478Z,103400.20
2019-05-12T18:43:16.223Z,103403.21
2019-05-12T18:45:57.076Z,103406.53
2019-05-12T18:48:25.295Z,103408.53
2019-05-12T18:51:11.835Z,103409.42
2019-05-12T18:53:57.754Z,103407.02
2019-05-12T18:56:29.500Z,103408.01
2019-05-12T18:59:11.604Z,103404.48
2019-05-12T19:01:38.582Z,103410.17
2019-05-12T19:04:14.161Z,103411.84
2019-05-12T19:06:46.931Z,103412.14
2019-05-12T19:09:20.387Z,103414.80
2019-05-12T19:11:53.840Z,103422.86
2019-05-12T19:14:34.916Z,103425.51
2019-05-12T19:17:03.568Z,103425.33
2019-05-12T19:19:46.204Z,103432.23
2019-05-12T19:22:21.131Z,103434.20
2019-05-12T19:24:56.735Z,103439.54
2019-05-12T19:27:29.131Z,103450.42
2019-05-12T19:30:13.815Z,103443.81
2019-05-12T19:33:00.120Z,103450.14
2019-05-12T19:35:33.632Z,103453.41
2019-05-12T19:38:15.749Z,103457.44
2019-05-12T19:40:55.111Z,103458.34
2019-05-12T19:43:23.865Z,103462.99
2019-05-12T19:46:03.654Z,103468.33
2019-05-12T19:48:47.626Z,103469.27
2019-05-12T19:51:23.672Z,103467.44
2019-05-12T19:53:45.425Z,103469.17
2019-05-12T19:56:34.588Z,103470.25
2019-05-12T19:59:04.402Z,103467.83
2019-05-12T20:01:37.961Z,103476.48
2019-05-12T20:04:13.950Z,103471.44
2019-05-12T20:06:46.678Z,103471.02
2019-05-12T20:09:20.869Z,103478.39
2019-05-12T20:12:09.994Z,103476.38
2019-05-12T20:14:38.443Z,103486.14
2019-05-12T20:17:11.881Z,103482.27
2019-05-12T20:19:45.493Z,103484.05
2019-05-12T20:22:18.985Z,103480.47
2019-05-12T20:24:53.720Z,103481.97
2019-05-12T20:27:27.085Z,103480.78
2019-05-12T20:30:43.656Z,103474.36
2019-05-12T20:33:14.351Z,103481.28
2019-05-12T20:35:49.313Z,103483.30
2019-05-12T20:38:26.440Z,103488.09
2019-05-12T20:40:58.312Z,103487.17
2019-05-12T20:43:37.165Z,103490.16
2019-05-12T20:46:12.963Z,103491.88
2019-05-12T20:48:44.605Z,103498.98
2019-05-12T20:51:20.346Z,103501.11
2019-05-12T20:53:54.356Z,103509.72
2019-05-12T20:56:26.953Z,103504.16
2019-05-12T20:59:00.439Z,103504.04
2019-05-12T21:01:33.961Z,103509.52
2019-05-12T21:04:07.736Z,103514.34
2019-05-12T21:06:50.577Z,103507.55
2019-05-12T21:09:24.204Z,103515.53
2019-05-12T21:11:57.716Z,103515.89
2019-05-12T21:14:33.414Z,103520.18
2019-05-12T21:17:18.392Z,103514.87
2019-05-12T21:20:04.522Z,103515.18
2019-05-12T21:22:47.056Z,103521.57
2019-05-12T21:25:23.181Z,103524.50
2019-05-12T21:28:07.705Z,103529.20
2019-05-12T21:30:42.331Z,103528.11
2019-05-12T21:33:16.982Z,103529.03
2019-05-12T21:35:50.512Z,103530.58
2019-05-12T21:38:27.607Z,103534.75
2019-05-12T21:41:02.210Z,103527.03
2019-05-12T21:43:44.513Z,103533.35
2019-05-12T21:46:19.355Z,103534.63
2019-05-12T21:49:10.652Z,103532.84
2019-05-12T21:51:58.934Z,103532.58
2019-05-12T21:54:29.437Z,103532.99
2019-05-12T21:57:02.078Z,103545.55
2019-05-12T21:59:39.583Z,103534.69
2019-05-12T22:02:19.638Z,103542.39
2019-05-12T22:04:56.084Z,103546.56
2019-05-12T22:07:29.415Z,103550.06
2019-05-12T22:10:04.916Z,103547.47
2019-05-12T22:12:47.545Z,103553.95
2019-05-12T22:15:24.589Z,103556.27
2019-05-12T22:18:00.906Z,103549.09
2019-05-12T22:20:46.230Z,103548.18
2019-05-12T22:23:18.807Z,103547.40
2019-05-12T22:25:55.582Z,103552.69
2019-05-12T22:28:27.580Z,103559.08
2019-05-12T22:31:01.273Z,103555.55
2019-05-12T22:33:34.511Z,103563.39
2019-05-12T22:36:14.660Z,103564.66
2019-05-12T22:38:45.547Z,103561.75
2019-05-12T22:41:30.270Z,103559.43
2019-05-12T22:44:03.229Z,103559.84
2019-05-12T22:46:38.039Z,103557.81
2019-05-12T22:49:16.970Z,103562.03
2019-05-12T22:52:02.641Z,103563.70
2019-05-12T22:54:33.690Z,103559.62
2019-05-12T22:57:17.076Z,103564.90
2019-05-12T22:59:50.277Z,103563.27
2019-05-12T23:02:28.881Z,103570.03
2019-05-12T23:05:10.213Z,103570.72
2019-05-12T23:07:43.948Z,103574.94
2019-05-12T23:10:17.486Z,103580.11
2019-05-12T23:12:57.023Z,103576.30
2019-05-12T23:15:26.002Z,103576.91
2019-05-12T23:17:59.156Z,103576.08
2019-05-12T23:20:43.920Z,103569.56
2019-05-12T23:23:25.836Z,103574.81
2019-05-12T23:26:00.423Z,103582.63
2019-05-12T23:28:40.460Z,103581.07
2019-05-12T23:31:13.275Z,103571.45
2019-05-12T23:33:50.665Z,103574.17
2019-05-12T23:36:35.258Z,103571.46
2019-05-12T23:39:00.789Z,103569.27
2019-05-12T23:41:48.706Z,103581.28
2019-05-12T23:44:23.943Z,103578.80
2019-05-12T23:46:57.695Z,103578.52
2019-05-12T23:49:33.106Z,103575.99
2019-05-12T23:52:06.316Z,103571.03
2019-05-12T23:54:39.863Z,103572.95
2019-05-12T23:57:15.742Z,103574.20
2019-05-12T23:59:50.521Z,103571.91
